createdAt,value
2022-11-13T00:00:19.546Z,28.75
2022-11-13T00:03:05.076Z,29.75
2022-11-13T00:05:59.046Z,29.50
2022-11-13T00:08:45.091Z,29.50
2022-11-13T00:11:30.662Z,29.50
2022-11-13T00:14:16.493Z,28.50
2022-11-13T00:17:03.419Z,27.50
2022-11-13T00:19:49.170Z,29.50
2022-11-13T00:22:35.344Z,28.25
2022-11-13T00:25:20.684Z,29.75
2022-11-13T00:28:06.168Z,28.75
2022-11-13T00:30:57.537Z,28.00
2022-11-13T00:34:09.158Z,30.00
2022-11-13T00:36:50.561Z,29.25
2022-11-13T00:39:36.012Z,29.25
2022-11-13T00:42:21.701Z,26.50
2022-11-13T00:45:08.063Z,29.25
2022-11-13T00:47:53.685Z,29.25
2022-11-13T00:50:40.982Z,32.00
2022-11-13T00:53:27.055Z,26.25
2022-11-13T00:56:12.561Z,32.00
2022-11-13T00:59:06.469Z,40.67
2022-11-13T01:01:52.457Z,32.00
2022-11-13T01:04:38.415Z,27.75
2022-11-13T01:07:26.060Z,29.00
2022-11-13T01:10:11.426Z,30.00
2022-11-13T01:12:57.099Z,31.00
2022-11-13T01:15:45.080Z,28.50
2022-11-13T01:18:31.036Z,27.50
2022-11-13T01:21:19.986Z,24.50
2022-11-13T01:24:07.442Z,31.75
2022-11-13T01:26:53.370Z,30.00
2022-11-13T01:29:39.309Z,30.00
2022-11-13T01:32:24.943Z,27.50
2022-11-13T01:35:10.229Z,30.00
2022-11-13T01:37:58.845Z,29.00
2022-11-13T01:40:47.976Z,27.75
2022-11-13T01:43:37.696Z,29.25
2022-11-13T01:46:31.371Z,29.00
2022-11-13T01:49:30.558Z,26.25
2022-11-13T01:52:20.249Z,28.50
2022-11-13T01:55:12.752Z,28.25
2022-11-13T01:58:02.452Z,28.50
2022-11-13T02:00:48.435Z,26.00
2022-11-13T02:03:34.124Z,27.50
2022-11-13T02:06:20.862Z,22.25
2022-11-13T02:09:07.614Z,25.00
2022-11-13T02:11:53.830Z,26.00
2022-11-13T02:14:45.422Z,26.00
2022-11-13T02:17:37.577Z,26.75
2022-11-13T02:20:35.113Z,25.25
2022-11-13T02:23:31.236Z,24.00
2022-11-13T02:26:23.868Z,26.50
2022-11-13T02:29:09.097Z,26.00
2022-11-13T02:31:54.479Z,30.00
2022-11-13T02:34:40.121Z,26.00
2022-11-13T02:37:25.729Z,25.00
2022-11-13T02:40:13.148Z,26.00
2022-11-13T02:43:01.318Z,28.25
2022-11-13T02:45:46.795Z,25.25
2022-11-13T02:48:32.341Z,29.00
2022-11-13T02:51:17.779Z,26.00
2022-11-13T02:54:04.090Z,26.00
2022-11-13T02:56:49.745Z,25.00
2022-11-13T02:59:36.734Z,27.75
2022-11-13T03:02:22.286Z,28.75
2022-11-13T03:05:12.399Z,29.25
2022-11-13T03:07:59.106Z,26.25
2022-11-13T03:10:44.822Z,24.25
2022-11-13T03:13:30.734Z,26.50
2022-11-13T03:16:18.282Z,25.50
2022-11-13T03:19:04.435Z,24.00
2022-11-13T03:21:50.749Z,24.25
2022-11-13T03:24:36.985Z,26.00
2022-11-13T03:27:22.819Z,26.00
2022-11-13T03:30:10.094Z,25.00
2022-11-13T03:32:57.828Z,25.25
2022-11-13T03:35:47.002Z,30.50
2022-11-13T03:38:34.192Z,27.50
2022-11-13T03:41:21.608Z,21.25
2022-11-13T03:44:06.861Z,26.25
2022-11-13T03:46:52.129Z,21.00
2022-11-13T03:49:39.287Z,20.00
2022-11-13T03:52:25.320Z,21.00
2022-11-13T03:55:11.138Z,20.50
2022-11-13T03:57:59.183Z,16.75
2022-11-13T04:00:46.691Z,21.75
2022-11-13T04:03:33.410Z,19.25
2022-11-13T04:06:20.225Z,21.75
2022-11-13T04:09:05.717Z,19.75
2022-11-13T04:11:51.376Z,20.00
2022-11-13T04:14:37.201Z,19.75
2022-11-13T04:17:22.414Z,18.00
2022-11-13T04:20:09.579Z,19.50
2022-11-13T04:22:57.629Z,18.50
2022-11-13T04:25:43.551Z,18.50
2022-11-13T04:28:30.198Z,19.75
2022-11-13T04:31:15.817Z,18.00
2022-11-13T04:34:01.332Z,18.25
2022-11-13T04:36:47.263Z,17.50
2022-11-13T04:39:33.783Z,16.00
2022-11-13T04:42:19.036Z,17.25
2022-11-13T04:45:06.024Z,20.50
2022-11-13T04:47:51.657Z,18.00
2022-11-13T04:50:37.480Z,18.00
2022-11-13T04:53:26.474Z,17.75
2022-11-13T04:56:13.837Z,17.00
2022-11-13T04:58:59.374Z,19.00
2022-11-13T05:01:45.043Z,18.00
2022-11-13T05:04:30.158Z,17.00
2022-11-13T05:07:16.419Z,17.00
2022-11-13T05:10:01.626Z,19.25
2022-11-13T05:12:48.474Z,15.50
2022-11-13T05:15:34.101Z,17.75
2022-11-13T05:18:19.842Z,16.25
2022-11-13T05:21:08.054Z,17.00
2022-11-13T05:23:53.338Z,16.50
2022-11-13T05:26:40.424Z,18.50
2022-11-13T05:29:27.373Z,18.25
2022-11-13T05:32:13.014Z,17.00
2022-11-13T05:34:58.465Z,15.75
2022-11-13T05:37:43.868Z,19.00
2022-11-13T05:40:29.976Z,14.25
2022-11-13T05:43:15.494Z,19.00
2022-11-13T05:46:06.066Z,16.50
2022-11-13T05:48:54.749Z,14.50
2022-11-13T05:51:40.357Z,16.00
2022-11-13T05:54:26.193Z,16.00
2022-11-13T05:57:11.492Z,15.25
2022-11-13T05:59:56.955Z,16.75
2022-11-13T06:02:44.240Z,16.75
2022-11-13T06:05:29.700Z,17.50
2022-11-13T06:08:14.915Z,20.00
2022-11-13T06:11:02.835Z,19.00
2022-11-13T06:13:49.778Z,19.75
2022-11-13T06:16:38.414Z,10.00
2022-11-13T06:19:25.634Z,17.25
2022-11-13T06:22:11.801Z,19.50
2022-11-13T06:24:56.947Z,13.00
2022-11-13T06:27:42.794Z,19.75
2022-11-13T06:30:28.763Z,20.50
2022-11-13T06:33:14.739Z,18.00
2022-11-13T06:36:03.630Z,18.25
2022-11-13T06:38:50.357Z,16.25
2022-11-13T06:41:38.877Z,19.00
2022-11-13T06:44:24.485Z,20.50
2022-11-13T06:47:10.480Z,24.75
2022-11-13T06:49:56.059Z,18.25
2022-11-13T06:52:42.798Z,22.75
2022-11-13T06:55:27.855Z,18.50
2022-11-13T06:58:14.725Z,20.00
2022-11-13T07:01:06.074Z,19.00
2022-11-13T07:03:51.884Z,16.75
2022-11-13T07:06:40.599Z,19.50
2022-11-13T07:09:35.082Z,18.75
2022-11-13T07:12:20.971Z,22.50
2022-11-13T07:15:07.486Z,17.75
2022-11-13T07:17:53.782Z,22.75
2022-11-13T07:20:39.325Z,23.00
2022-11-13T07:23:27.832Z,19.50
2022-11-13T07:26:15.171Z,20.00
2022-11-13T07:29:00.759Z,17.25
2022-11-13T07:31:46.368Z,17.25
2022-11-13T07:34:31.894Z,21.25
2022-11-13T07:37:17.746Z,19.25
2022-11-13T07:40:07.004Z,21.50
2022-11-13T07:42:58.881Z,21.00
2022-11-13T07:45:44.782Z,17.25
2022-11-13T07:48:31.035Z,22.00
2022-11-13T07:51:16.769Z,28.25
2022-11-13T07:54:02.348Z,23.75
2022-11-13T07:56:47.638Z,22.00
2022-11-13T07:59:35.080Z,23.50
2022-11-13T08:02:26.657Z,20.50
2022-11-13T08:05:15.044Z,19.50
2022-11-13T08:08:01.371Z,17.25
2022-11-13T08:10:47.575Z,17.25
2022-11-13T08:13:34.135Z,18.00
2022-11-13T08:16:20.983Z,22.00
2022-11-13T08:19:06.925Z,22.25
2022-11-13T08:21:52.475Z,17.00
2022-11-13T08:24:38.083Z,14.50
2022-11-13T08:27:24.978Z,23.00
2022-11-13T08:30:12.698Z,20.50
2022-11-13T08:33:03.107Z,18.25
2022-11-13T08:35:56.129Z,20.00
2022-11-13T08:38:41.879Z,21.50
2022-11-13T08:41:27.192Z,14.00
2022-11-13T08:44:14.039Z,23.50
2022-11-13T08:47:02.697Z,21.25
2022-11-13T08:49:50.093Z,21.25
2022-11-13T08:52:35.591Z,21.00
2022-11-13T08:55:21.307Z,25.50
2022-11-13T08:58:06.504Z,21.00
2022-11-13T09:00:52.333Z,18.50
2022-11-13T09:03:37.974Z,20.00
2022-11-13T09:06:28.761Z,22.25
2022-11-13T09:09:15.317Z,22.50
2022-11-13T09:12:30.449Z,23.00
2022-11-13T09:15:19.125Z,16.25
2022-11-13T09:18:15.542Z,21.00
2022-11-13T09:21:02.482Z,19.00
2022-11-13T09:23:49.635Z,19.00
2022-11-13T09:26:37.369Z,15.75
2022-11-13T09:29:23.774Z,17.25
2022-11-13T09:32:09.202Z,17.75
2022-11-13T09:34:54.561Z,16.75
2022-11-13T09:37:40.560Z,16.75
2022-11-13T09:40:33.944Z,15.00
2022-11-13T09:43:34.845Z,15.50
2022-11-13T09:47:14.818Z,14.25
2022-11-13T09:50:10.851Z,13.00
2022-11-13T09:52:57.205Z,12.75
2022-11-13T09:56:02.594Z,10.50
2022-11-13T09:59:09.785Z,15.00
2022-11-13T10:02:10.959Z,11.50
2022-11-13T10:05:10.854Z,13.25
2022-11-13T10:08:07.616Z,13.00
2022-11-13T10:11:09.079Z,14.75
2022-11-13T10:14:01.671Z,11.00
2022-11-13T10:16:55.585Z,12.75
2022-11-13T10:19:53.023Z,11.80
2022-11-13T10:22:49.483Z,10.40
2022-11-13T10:25:38.104Z,9.40
2022-11-13T10:28:49.352Z,9.40
2022-11-13T10:31:46.401Z,11.40
2022-11-13T10:34:32.638Z,11.00
2022-11-13T10:37:39.944Z,8.20
2022-11-13T10:40:26.327Z,12.40
2022-11-13T10:43:16.742Z,8.20
2022-11-13T10:46:05.963Z,12.40
2022-11-13T10:48:52.514Z,10.00
2022-11-13T10:51:38.477Z,12.40
2022-11-13T10:54:28.840Z,11.60
2022-11-13T10:57:30.053Z,8.80
2022-11-13T11:00:23.623Z,11.00
2022-11-13T11:03:15.738Z,11.40
2022-11-13T11:06:04.236Z,7.60
2022-11-13T11:08:49.675Z,11.20
2022-11-13T11:11:34.863Z,9.60
2022-11-13T11:14:26.877Z,9.20
2022-11-13T11:17:18.358Z,12.60
2022-11-13T11:20:21.001Z,11.20
2022-11-13T11:23:22.918Z,10.80
2022-11-13T11:26:15.573Z,11.40
2022-11-13T11:29:16.012Z,12.20
2022-11-13T11:32:15.760Z,11.40
2022-11-13T11:35:14.343Z,11.60
2022-11-13T11:38:11.476Z,9.20
2022-11-13T11:41:17.686Z,10.80
2022-11-13T11:44:18.159Z,9.60
2022-11-13T11:47:04.734Z,10.00
2022-11-13T11:49:50.416Z,8.80
2022-11-13T11:52:59.771Z,11.00
2022-11-13T11:56:06.120Z,11.00
2022-11-13T11:59:15.523Z,10.60
2022-11-13T12:02:50.034Z,11.20
2022-11-13T12:05:49.228Z,12.60
2022-11-13T12:08:48.654Z,10.20
2022-11-13T12:11:40.058Z,8.00
2022-11-13T12:14:45.019Z,12.00
2022-11-13T12:17:50.582Z,13.20
2022-11-13T12:20:49.423Z,13.00
2022-11-13T12:24:06.078Z,9.75
2022-11-13T12:27:06.831Z,5.75
2022-11-13T12:30:13.847Z,12.50
2022-11-13T12:33:27.468Z,10.25
2022-11-13T12:36:14.446Z,10.50
2022-11-13T12:39:14.564Z,9.50
2022-11-13T12:42:13.826Z,8.25
2022-11-13T12:45:10.930Z,10.00
2022-11-13T12:48:07.278Z,12.50
2022-11-13T12:51:04.838Z,10.75
2022-11-13T12:54:12.238Z,10.50
2022-11-13T12:57:20.221Z,8.75
2022-11-13T13:00:24.734Z,10.25
2022-11-13T13:03:36.375Z,12.25
2022-11-13T13:06:51.259Z,12.00
2022-11-13T13:10:03.827Z,11.75
2022-11-13T13:13:02.629Z,11.75
2022-11-13T13:15:58.537Z,10.75
2022-11-13T13:18:44.252Z,9.75
2022-11-13T13:21:41.880Z,3.75
2022-11-13T13:24:34.566Z,10.25
2022-11-13T13:27:27.808Z,10.50
2022-11-13T13:30:20.517Z,10.50
2022-11-13T13:33:23.008Z,10.25
2022-11-13T13:36:25.726Z,11.25
2022-11-13T13:39:28.178Z,10.00
2022-11-13T13:42:57.617Z,8.25
2022-11-13T13:46:01.231Z,8.75
2022-11-13T13:48:50.534Z,10.50
2022-11-13T13:51:44.003Z,9.25
2022-11-13T13:54:33.980Z,7.50
2022-11-13T13:57:20.325Z,11.50
2022-11-13T14:00:12.562Z,11.75
2022-11-13T14:03:19.601Z,11.00
2022-11-13T14:06:17.137Z,19.67
2022-11-13T14:09:15.737Z,10.67
2022-11-13T14:12:16.925Z,10.50
2022-11-13T14:15:05.246Z,7.50
2022-11-13T14:17:50.626Z,9.75
2022-11-13T14:29:59.428Z,8.50
2022-11-13T14:32:47.297Z,8.33
2022-11-13T14:35:33.460Z,10.67
2022-11-13T14:38:24.902Z,10.33
2022-11-13T14:41:24.728Z,9.00
2022-11-13T14:44:12.125Z,11.00
2022-11-13T14:47:04.998Z,9.00
2022-11-13T14:49:50.759Z,10.67
2022-11-13T14:52:36.483Z,15.00
2022-11-13T14:55:25.574Z,10.67
2022-11-13T14:58:13.680Z,11.00
2022-11-13T15:01:12.105Z,12.67
2022-11-13T15:03:58.873Z,9.33
2022-11-13T15:06:45.141Z,11.25
2022-11-13T15:09:31.376Z,9.25
2022-11-13T15:12:17.119Z,9.67
2022-11-13T15:15:03.119Z,10.00
2022-11-13T15:17:51.926Z,12.25
2022-11-13T15:20:41.703Z,12.75
2022-11-13T15:23:27.398Z,11.00
2022-11-13T15:26:13.604Z,10.75
2022-11-13T15:28:59.245Z,6.75
2022-11-13T15:31:47.459Z,7.50
2022-11-13T15:34:33.391Z,17.50
2022-11-13T15:37:21.513Z,13.50
2022-11-13T15:40:10.644Z,16.75
2022-11-13T15:42:56.931Z,13.75
2022-11-13T15:45:44.442Z,15.50
2022-11-13T15:48:34.922Z,31.75
2022-11-13T15:51:26.674Z,22.25
2022-11-13T15:54:31.774Z,24.25
2022-11-13T15:57:21.682Z,18.50
2022-11-13T16:00:15.076Z,17.75
2022-11-13T16:03:01.475Z,13.00
2022-11-13T16:05:46.717Z,17.50
2022-11-13T16:08:32.477Z,12.50
2022-11-13T16:11:21.013Z,17.00
2022-11-13T16:14:07.169Z,16.75
2022-11-13T16:16:53.700Z,16.50
2022-11-13T16:19:42.119Z,17.75
2022-11-13T16:22:27.874Z,29.50
2022-11-13T16:25:16.703Z,32.50
2022-11-13T16:28:04.543Z,38.50
2022-11-13T16:30:51.094Z,34.25
2022-11-13T16:33:37.420Z,34.50
2022-11-13T16:36:22.917Z,35.75
2022-11-13T16:39:16.300Z,22.50
2022-11-13T16:42:02.270Z,14.50
2022-11-13T16:44:50.421Z,16.00
2022-11-13T16:47:35.746Z,14.50
2022-11-13T16:50:27.782Z,10.00
2022-11-13T16:53:13.505Z,18.25
2022-11-13T16:56:00.424Z,19.00
2022-11-13T16:58:46.152Z,13.00
2022-11-13T17:01:33.179Z,12.25
2022-11-13T17:04:18.802Z,10.00
2022-11-13T17:07:04.417Z,12.75
2022-11-13T17:10:09.988Z,11.75
2022-11-13T17:12:55.677Z,15.25
2022-11-13T17:15:40.809Z,16.00
2022-11-13T17:18:28.089Z,16.50
2022-11-13T17:21:13.266Z,21.00
2022-11-13T17:24:05.052Z,16.50
2022-11-13T17:26:50.732Z,13.75
2022-11-13T17:29:36.557Z,12.00
2022-11-13T17:32:21.762Z,14.25
2022-11-13T17:35:11.528Z,13.75
2022-11-13T17:37:57.471Z,14.00
2022-11-13T17:40:42.709Z,16.50
2022-11-13T17:43:28.545Z,13.75
2022-11-13T17:46:17.381Z,17.25
2022-11-13T17:49:03.338Z,14.50
2022-11-13T17:51:50.560Z,17.75
2022-11-13T17:54:35.917Z,11.75
2022-11-13T17:57:26.539Z,24.50
2022-11-13T18:00:14.074Z,21.00
2022-11-13T18:02:59.629Z,29.25
2022-11-13T18:05:45.952Z,22.25
2022-11-13T18:08:33.659Z,30.00
2022-11-13T18:11:24.904Z,46.00
2022-11-13T18:14:10.714Z,28.00
2022-11-13T18:16:56.037Z,36.25
2022-11-13T18:19:41.880Z,56.33
2022-11-13T18:22:27.527Z,43.33
2022-11-13T18:25:14.894Z,41.00
2022-11-13T18:28:00.167Z,40.50
2022-11-13T18:30:45.567Z,35.50
2022-11-13T18:33:32.905Z,41.75
2022-11-13T18:36:19.225Z,47.33
2022-11-13T18:39:05.002Z,47.67
2022-11-13T18:41:52.331Z,43.75
2022-11-13T18:44:37.996Z,44.25
2022-11-13T18:47:24.089Z,45.50
2022-11-13T18:50:10.046Z,47.33
2022-11-13T18:52:55.667Z,45.33
2022-11-13T18:55:41.219Z,47.33
2022-11-13T18:58:28.908Z,34.50
2022-11-13T19:01:22.214Z,25.75
2022-11-13T19:04:24.355Z,40.33
2022-11-13T19:07:10.139Z,87.25
2022-11-13T19:09:55.853Z,50.00
2022-11-13T19:12:42.288Z,45.67
2022-11-13T19:18:59.141Z,39.00
2022-11-13T19:21:48.728Z,34.33
2022-11-13T19:25:53.616Z,39.00
2022-11-13T19:28:04.102Z,38.33
2022-11-13T19:30:51.213Z,40.33
2022-11-13T19:33:39.237Z,39.00
2022-11-13T19:36:29.111Z,34.67
2022-11-13T19:39:15.307Z,25.75
2022-11-13T19:42:02.627Z,20.50
2022-11-13T19:44:56.028Z,30.00
2022-11-13T19:47:43.399Z,31.50
2022-11-13T19:50:29.234Z,28.00
2022-11-13T19:53:15.005Z,29.75
2022-11-13T19:56:00.510Z,29.75
2022-11-13T19:58:48.558Z,39.00
2022-11-13T20:01:34.076Z,38.67
2022-11-13T20:04:21.198Z,34.25
2022-11-13T20:07:06.784Z,35.33
2022-11-13T20:09:52.147Z,45.00
2022-11-13T20:12:37.913Z,41.33
2022-11-13T20:15:23.633Z,41.00
2022-11-13T20:18:09.347Z,39.67
2022-11-13T20:20:57.753Z,41.00
2022-11-13T20:23:43.318Z,41.00
2022-11-13T20:26:29.438Z,40.00
2022-11-13T20:29:18.103Z,44.00
2022-11-13T20:32:04.804Z,42.67
2022-11-13T20:34:50.518Z,45.00
2022-11-13T20:37:38.138Z,40.67
2022-11-13T20:40:23.382Z,44.33
2022-11-13T20:43:11.669Z,52.00
2022-11-13T20:46:36.393Z,51.00
2022-11-13T20:49:24.463Z,55.33
2022-11-13T20:52:30.995Z,52.00
2022-11-13T20:55:20.987Z,53.00
2022-11-13T20:58:06.975Z,62.50
2022-11-13T21:01:15.459Z,74.75
2022-11-13T21:04:00.880Z,89.75
2022-11-13T21:06:47.760Z,79.25
2022-11-13T21:09:34.433Z,66.75
2022-11-13T21:12:30.668Z,57.25
2022-11-13T21:16:17.588Z,57.00
2022-11-13T21:19:05.689Z,54.50
2022-11-13T21:21:52.561Z,51.00
2022-11-13T21:24:38.223Z,53.00
2022-11-13T21:27:28.585Z,58.50
2022-11-13T21:30:19.325Z,60.50
2022-11-13T21:33:11.039Z,52.25
2022-11-13T21:36:27.741Z,50.50
2022-11-13T21:39:13.302Z,50.67
2022-11-13T21:41:58.753Z,49.00
2022-11-13T21:44:45.275Z,45.33
2022-11-13T21:47:31.004Z,50.00
2022-11-13T21:50:17.004Z,49.67
2022-11-13T21:53:02.242Z,49.00
2022-11-13T21:55:51.188Z,51.00
2022-11-13T21:58:40.238Z,49.50
2022-11-13T22:01:28.037Z,70.25
2022-11-13T22:04:14.046Z,49.33
2022-11-13T22:06:59.702Z,56.75
2022-11-13T22:09:44.858Z,51.67
2022-11-13T22:12:30.122Z,48.33
2022-11-13T22:15:15.909Z,47.67
2022-11-13T22:18:02.821Z,48.67
2022-11-13T22:20:48.798Z,47.33
2022-11-13T22:23:35.460Z,75.25
2022-11-13T22:26:23.287Z,33.00
2022-11-13T22:29:09.653Z,40.00
2022-11-13T22:31:54.790Z,36.00
2022-11-13T22:34:41.371Z,38.00
2022-11-13T22:37:26.642Z,39.67
2022-11-13T22:40:13.297Z,35.67
2022-11-13T22:42:58.864Z,25.67
2022-11-13T22:45:44.408Z,32.33
2022-11-13T22:48:30.152Z,38.00
2022-11-13T22:51:20.668Z,37.00
2022-11-13T22:54:09.268Z,35.33
2022-11-13T22:56:54.822Z,35.67
2022-11-13T22:59:40.013Z,32.33
2022-11-13T23:02:26.155Z,34.00
2022-11-13T23:05:11.899Z,35.00
2022-11-13T23:07:58.958Z,34.67
2022-11-13T23:10:52.304Z,36.67
2022-11-13T23:13:40.723Z,39.67
2022-11-13T23:16:27.412Z,43.67
2022-11-13T23:19:13.180Z,41.00
2022-11-13T23:21:58.689Z,40.33
2022-11-13T23:24:45.585Z,38.00
2022-11-13T23:27:31.412Z,36.00
2022-11-13T23:30:17.270Z,33.50
2022-11-13T23:33:02.416Z,33.00
2022-11-13T23:35:48.849Z,27.25
2022-11-13T23:38:34.563Z,27.25
2022-11-13T23:41:21.356Z,30.00
2022-11-13T23:44:09.099Z,32.25
2022-11-13T23:46:55.908Z,30.50
2022-11-13T23:49:42.492Z,30.75
2022-11-13T23:52:28.064Z,32.00
2022-11-13T23:55:15.055Z,30.00
2022-11-13T23:58:04.799Z,26.00
